sensor_id;sensor_type;location;lat;lon;timestamp;pressure;altitude;pressure_sealevel;temperature;humidity
31911;BME280;18457;52.432;16.914;2023-02-16T00:01:16;101298.17;;;3.43;87.90
31911;BME280;18457;52.432;16.914;2023-02-16T00:03:51;101302.10;;;3.43;87.54
31911;BME280;18457;52.432;16.914;2023-02-16T00:06:24;101298.02;;;3.44;87.24
31911;BME280;18457;52.432;16.914;2023-02-16T00:08:57;101298.39;;;3.45;87.08
31911;BME280;18457;52.432;16.914;2023-02-16T00:11:31;101303.02;;;3.45;86.99
31911;BME280;18457;52.432;16.914;2023-02-16T00:14:22;101300.40;;;3.48;86.58
31911;BME280;18457;52.432;16.914;2023-02-16T00:16:57;101305.46;;;3.42;86.93
31911;BME280;18457;52.432;16.914;2023-02-16T00:19:32;101301.66;;;3.30;87.93
31911;BME280;18457;52.432;16.914;2023-02-16T00:22:06;101298.64;;;3.30;87.65
31911;BME280;18457;52.432;16.914;2023-02-16T00:24:38;101297.98;;;3.34;86.97
31911;BME280;18457;52.432;16.914;2023-02-16T00:27:13;101295.94;;;3.30;87.27
31911;BME280;18457;52.432;16.914;2023-02-16T00:29:48;101287.91;;;3.30;86.63
31911;BME280;18457;52.432;16.914;2023-02-16T00:32:20;101290.85;;;3.34;86.31
31911;BME280;18457;52.432;16.914;2023-02-16T00:34:51;101287.45;;;3.34;86.01
31911;BME280;18457;52.432;16.914;2023-02-16T00:37:22;101282.49;;;3.36;85.30
31911;BME280;18457;52.432;16.914;2023-02-16T00:39:55;101281.77;;;3.36;84.94
31911;BME280;18457;52.432;16.914;2023-02-16T00:42:29;101276.21;;;3.35;84.73
31911;BME280;18457;52.432;16.914;2023-02-16T00:45:03;101272.10;;;3.34;84.56
31911;BME280;18457;52.432;16.914;2023-02-16T00:47:37;101274.57;;;3.32;84.40
31911;BME280;18457;52.432;16.914;2023-02-16T00:50:16;101273.98;;;3.30;84.49
31911;BME280;18457;52.432;16.914;2023-02-16T00:52:49;101277.13;;;3.27;84.40
31911;BME280;18457;52.432;16.914;2023-02-16T00:55:23;101275.24;;;3.21;84.41
31911;BME280;18457;52.432;16.914;2023-02-16T00:58:01;101271.95;;;3.10;84.94
31911;BME280;18457;52.432;16.914;2023-02-16T01:00:38;101271.19;;;3.06;85.45
31911;BME280;18457;52.432;16.914;2023-02-16T01:03:14;101272.46;;;3.08;85.15
31911;BME280;18457;52.432;16.914;2023-02-16T01:05:48;101267.38;;;3.12;84.30
31911;BME280;18457;52.432;16.914;2023-02-16T01:08:41;101269.20;;;3.14;83.94
31911;BME280;18457;52.432;16.914;2023-02-16T01:11:30;101265.95;;;3.20;83.49
31911;BME280;18457;52.432;16.914;2023-02-16T01:14:04;101260.12;;;3.15;83.44
31911;BME280;18457;52.432;16.914;2023-02-16T01:16:38;101259.02;;;3.13;83.47
31911;BME280;18457;52.432;16.914;2023-02-16T01:19:12;101256.98;;;3.09;83.26
31911;BME280;18457;52.432;16.914;2023-02-16T01:21:44;101250.48;;;3.06;83.45
31911;BME280;18457;52.432;16.914;2023-02-16T01:24:16;101253.65;;;3.04;83.39
31911;BME280;18457;52.432;16.914;2023-02-16T01:26:50;101254.88;;;3.03;83.71
31911;BME280;18457;52.432;16.914;2023-02-16T01:29:22;101245.80;;;3.04;83.37
31911;BME280;18457;52.432;16.914;2023-02-16T01:31:55;101240.23;;;3.02;83.39
31911;BME280;18457;52.432;16.914;2023-02-16T01:34:27;101233.80;;;3.02;83.37
31911;BME280;18457;52.432;16.914;2023-02-16T01:37:01;101241.55;;;2.96;83.67
31911;BME280;18457;52.432;16.914;2023-02-16T01:39:33;101241.21;;;2.98;83.66
31911;BME280;18457;52.432;16.914;2023-02-16T01:42:12;101231.77;;;2.99;83.32
31911;BME280;18457;52.432;16.914;2023-02-16T01:44:49;101231.19;;;2.96;83.35
31911;BME280;18457;52.432;16.914;2023-02-16T01:47:31;101227.19;;;2.92;83.65
31911;BME280;18457;52.432;16.914;2023-02-16T01:50:15;101224.30;;;2.91;83.31
31911;BME280;18457;52.432;16.914;2023-02-16T01:52:53;101225.32;;;2.88;83.22
31911;BME280;18457;52.432;16.914;2023-02-16T01:55:30;101220.70;;;2.89;82.69
31911;BME280;18457;52.432;16.914;2023-02-16T01:58:07;101217.89;;;2.92;82.56
31911;BME280;18457;52.432;16.914;2023-02-16T02:03:53;101213.59;;;2.73;83.75
31911;BME280;18457;52.432;16.914;2023-02-16T02:06:43;101211.19;;;2.77;82.95
31911;BME280;18457;52.432;16.914;2023-02-16T02:09:18;101212.40;;;2.75;82.71
31911;BME280;18457;52.432;16.914;2023-02-16T02:11:59;101204.41;;;2.79;82.38
31911;BME280;18457;52.432;16.914;2023-02-16T02:14:37;101199.22;;;2.68;83.45
31911;BME280;18457;52.432;16.914;2023-02-16T02:17:13;101194.30;;;2.73;83.20
31911;BME280;18457;52.432;16.914;2023-02-16T02:19:53;101193.13;;;2.67;82.71
31911;BME280;18457;52.432;16.914;2023-02-16T02:23:00;101196.26;;;2.72;82.48
31911;BME280;18457;52.432;16.914;2023-02-16T02:26:35;101199.65;;;2.72;82.28
31911;BME280;18457;52.432;16.914;2023-02-16T02:29:24;101194.65;;;2.72;82.09
31911;BME280;18457;52.432;16.914;2023-02-16T02:32:05;101191.24;;;2.71;81.97
31911;BME280;18457;52.432;16.914;2023-02-16T02:34:53;101210.61;;;2.76;81.80
31911;BME280;18457;52.432;16.914;2023-02-16T02:37:33;101205.66;;;2.78;81.66
31911;BME280;18457;52.432;16.914;2023-02-16T02:40:13;101201.61;;;2.81;81.34
31911;BME280;18457;52.432;16.914;2023-02-16T02:42:56;101199.88;;;2.83;81.09
31911;BME280;18457;52.432;16.914;2023-02-16T02:45:35;101195.05;;;2.83;80.99
31911;BME280;18457;52.432;16.914;2023-02-16T02:48:08;101194.45;;;2.80;80.94
31911;BME280;18457;52.432;16.914;2023-02-16T02:50:45;101203.59;;;2.73;81.12
31911;BME280;18457;52.432;16.914;2023-02-16T02:53:32;101196.77;;;2.62;81.60
31911;BME280;18457;52.432;16.914;2023-02-16T02:56:07;101198.76;;;2.63;81.63
31911;BME280;18457;52.432;16.914;2023-02-16T02:59:00;101197.86;;;2.62;81.56
31911;BME280;18457;52.432;16.914;2023-02-16T03:01:55;101196.66;;;2.56;81.73
31911;BME280;18457;52.432;16.914;2023-02-16T03:04:30;101191.03;;;2.60;81.35
31911;BME280;18457;52.432;16.914;2023-02-16T03:07:05;101188.35;;;2.60;81.20
31911;BME280;18457;52.432;16.914;2023-02-16T03:09:39;101187.99;;;2.61;81.16
31911;BME280;18457;52.432;16.914;2023-02-16T03:12:12;101187.66;;;2.61;81.15
31911;BME280;18457;52.432;16.914;2023-02-16T03:15:03;101191.92;;;2.60;81.23
31911;BME280;18457;52.432;16.914;2023-02-16T03:17:40;101197.23;;;2.58;81.21
31911;BME280;18457;52.432;16.914;2023-02-16T03:20:30;101192.21;;;2.56;81.22
31911;BME280;18457;52.432;16.914;2023-02-16T03:23:20;101189.39;;;2.59;81.19
31911;BME280;18457;52.432;16.914;2023-02-16T03:26:10;101191.34;;;2.58;81.30
31911;BME280;18457;52.432;16.914;2023-02-16T03:29:02;101186.08;;;2.53;81.20
31911;BME280;18457;52.432;16.914;2023-02-16T03:31:47;101190.14;;;2.51;81.28
31911;BME280;18457;52.432;16.914;2023-02-16T03:34:20;101198.50;;;2.51;81.32
31911;BME280;18457;52.432;16.914;2023-02-16T03:36:57;101202.59;;;2.50;81.25
31911;BME280;18457;52.432;16.914;2023-02-16T03:39:31;101201.34;;;2.49;81.43
31911;BME280;18457;52.432;16.914;2023-02-16T03:42:24;101200.66;;;2.51;81.34
31911;BME280;18457;52.432;16.914;2023-02-16T03:44:55;101199.95;;;2.51;81.25
31911;BME280;18457;52.432;16.914;2023-02-16T03:47:27;101196.98;;;2.46;81.55
31911;BME280;18457;52.432;16.914;2023-02-16T03:50:00;101196.75;;;2.44;81.45
31911;BME280;18457;52.432;16.914;2023-02-16T03:52:32;101189.79;;;2.44;81.55
31911;BME280;18457;52.432;16.914;2023-02-16T03:55:04;101189.52;;;2.40;81.57
31911;BME280;18457;52.432;16.914;2023-02-16T03:57:36;101191.67;;;2.40;81.56
31911;BME280;18457;52.432;16.914;2023-02-16T04:00:09;101190.59;;;2.39;81.96
31911;BME280;18457;52.432;16.914;2023-02-16T04:02:44;101191.08;;;2.37;82.01
31911;BME280;18457;52.432;16.914;2023-02-16T04:05:17;101187.55;;;2.39;81.87
31911;BME280;18457;52.432;16.914;2023-02-16T04:07:49;101186.65;;;2.31;82.07
31911;BME280;18457;52.432;16.914;2023-02-16T04:10:22;101184.91;;;2.25;82.31
31911;BME280;18457;52.432;16.914;2023-02-16T04:12:54;101180.11;;;2.01;83.29
31911;BME280;18457;52.432;16.914;2023-02-16T04:15:28;101181.55;;;2.02;83.59
31911;BME280;18457;52.432;16.914;2023-02-16T04:18:00;101179.11;;;1.96;83.85
31911;BME280;18457;52.432;16.914;2023-02-16T04:20:34;101175.82;;;1.93;84.20
31911;BME280;18457;52.432;16.914;2023-02-16T04:23:06;101174.93;;;2.01;84.16
31911;BME280;18457;52.432;16.914;2023-02-16T04:25:38;101170.45;;;2.07;83.86
31911;BME280;18457;52.432;16.914;2023-02-16T04:28:10;101171.48;;;2.13;83.50
31911;BME280;18457;52.432;16.914;2023-02-16T04:30:41;101173.42;;;2.13;83.22
31911;BME280;18457;52.432;16.914;2023-02-16T04:33:14;101167.11;;;2.17;83.15
31911;BME280;18457;52.432;16.914;2023-02-16T04:35:45;101163.86;;;2.24;82.66
31911;BME280;18457;52.432;16.914;2023-02-16T04:38:18;101162.10;;;2.24;82.49
31911;BME280;18457;52.432;16.914;2023-02-16T04:40:49;101161.36;;;2.23;82.54
31911;BME280;18457;52.432;16.914;2023-02-16T04:43:21;101161.58;;;2.25;82.37
31911;BME280;18457;52.432;16.914;2023-02-16T04:45:53;101159.08;;;2.25;82.24
31911;BME280;18457;52.432;16.914;2023-02-16T04:48:25;101159.92;;;2.23;82.53
31911;BME280;18457;52.432;16.914;2023-02-16T04:50:57;101159.08;;;2.17;82.96
31911;BME280;18457;52.432;16.914;2023-02-16T04:53:29;101159.73;;;2.22;82.55
31911;BME280;18457;52.432;16.914;2023-02-16T04:56:01;101157.44;;;2.23;82.39
31911;BME280;18457;52.432;16.914;2023-02-16T04:58:33;101154.27;;;2.25;82.25
31911;BME280;18457;52.432;16.914;2023-02-16T05:01:05;101154.08;;;2.24;82.26
31911;BME280;18457;52.432;16.914;2023-02-16T05:03:37;101149.23;;;2.23;82.25
31911;BME280;18457;52.432;16.914;2023-02-16T05:06:09;101142.46;;;2.23;82.31
31911;BME280;18457;52.432;16.914;2023-02-16T05:08:41;101149.54;;;2.21;82.39
31911;BME280;18457;52.432;16.914;2023-02-16T05:11:13;101149.13;;;2.18;82.41
31911;BME280;18457;52.432;16.914;2023-02-16T05:14:03;101149.02;;;2.14;82.73
31911;BME280;18457;52.432;16.914;2023-02-16T05:16:53;101152.33;;;2.10;82.81
31911;BME280;18457;52.432;16.914;2023-02-16T05:19:25;101157.02;;;2.13;82.80
31911;BME280;18457;52.432;16.914;2023-02-16T05:21:56;101158.13;;;2.15;82.71
31911;BME280;18457;52.432;16.914;2023-02-16T05:24:28;101159.02;;;2.15;82.75
31911;BME280;18457;52.432;16.914;2023-02-16T05:27:01;101155.96;;;2.13;82.69
31911;BME280;18457;52.432;16.914;2023-02-16T05:29:33;101161.60;;;2.11;82.77
31911;BME280;18457;52.432;16.914;2023-02-16T05:32:05;101159.13;;;2.11;82.84
31911;BME280;18457;52.432;16.914;2023-02-16T05:34:37;101156.66;;;2.13;82.85
31911;BME280;18457;52.432;16.914;2023-02-16T05:37:09;101155.98;;;2.13;82.66
31911;BME280;18457;52.432;16.914;2023-02-16T05:39:42;101159.47;;;2.10;82.72
31911;BME280;18457;52.432;16.914;2023-02-16T05:42:13;101161.45;;;2.12;82.72
31911;BME280;18457;52.432;16.914;2023-02-16T05:44:45;101159.98;;;2.10;82.78
31911;BME280;18457;52.432;16.914;2023-02-16T05:47:17;101161.71;;;2.07;82.99
31911;BME280;18457;52.432;16.914;2023-02-16T05:49:49;101163.54;;;2.09;82.92
31911;BME280;18457;52.432;16.914;2023-02-16T05:52:21;101163.67;;;2.08;83.07
31911;BME280;18457;52.432;16.914;2023-02-16T05:54:52;101166.73;;;2.08;83.09
31911;BME280;18457;52.432;16.914;2023-02-16T05:57:24;101167.77;;;2.07;83.16
31911;BME280;18457;52.432;16.914;2023-02-16T05:59:56;101173.67;;;2.08;83.17
31911;BME280;18457;52.432;16.914;2023-02-16T06:02:28;101171.81;;;2.04;83.32
31911;BME280;18457;52.432;16.914;2023-02-16T06:05:00;101170.02;;;2.03;83.46
31911;BME280;18457;52.432;16.914;2023-02-16T06:07:32;101166.80;;;1.95;83.80
31911;BME280;18457;52.432;16.914;2023-02-16T06:10:05;101166.98;;;1.80;84.81
31911;BME280;18457;52.432;16.914;2023-02-16T06:12:37;101161.15;;;1.83;84.68
31911;BME280;18457;52.432;16.914;2023-02-16T06:15:09;101163.77;;;1.88;84.52
31911;BME280;18457;52.432;16.914;2023-02-16T06:17:40;101160.40;;;1.88;84.33
31911;BME280;18457;52.432;16.914;2023-02-16T06:20:14;101172.24;;;1.92;84.39
31911;BME280;18457;52.432;16.914;2023-02-16T06:22:46;101172.65;;;1.95;84.26
31911;BME280;18457;52.432;16.914;2023-02-16T06:25:18;101172.51;;;1.96;84.39
31911;BME280;18457;52.432;16.914;2023-02-16T06:27:50;101166.10;;;1.96;84.05
31911;BME280;18457;52.432;16.914;2023-02-16T06:30:22;101173.32;;;2.00;84.18
31911;BME280;18457;52.432;16.914;2023-02-16T06:32:54;101174.36;;;1.99;84.08
31911;BME280;18457;52.432;16.914;2023-02-16T06:35:26;101172.20;;;1.99;84.31
31911;BME280;18457;52.432;16.914;2023-02-16T06:37:57;101171.90;;;2.01;84.11
31911;BME280;18457;52.432;16.914;2023-02-16T06:40:30;101176.38;;;2.02;84.24
31911;BME280;18457;52.432;16.914;2023-02-16T06:43:02;101174.80;;;2.03;84.02
31911;BME280;18457;52.432;16.914;2023-02-16T06:45:34;101173.78;;;1.97;84.30
31911;BME280;18457;52.432;16.914;2023-02-16T06:48:06;101170.46;;;2.00;84.36
31911;BME280;18457;52.432;16.914;2023-02-16T06:50:38;101164.28;;;2.03;84.35
31911;BME280;18457;52.432;16.914;2023-02-16T06:53:10;101156.69;;;2.06;83.93
31911;BME280;18457;52.432;16.914;2023-02-16T06:55:42;101159.73;;;2.06;83.92
31911;BME280;18457;52.432;16.914;2023-02-16T06:58:14;101156.41;;;2.10;83.92
31911;BME280;18457;52.432;16.914;2023-02-16T07:00:46;101153.56;;;2.09;83.95
31911;BME280;18457;52.432;16.914;2023-02-16T07:03:18;101154.70;;;2.12;84.06
31911;BME280;18457;52.432;16.914;2023-02-16T07:05:50;101152.02;;;2.12;84.33
31911;BME280;18457;52.432;16.914;2023-02-16T07:08:22;101147.64;;;2.15;84.34
31911;BME280;18457;52.432;16.914;2023-02-16T07:10:54;101147.00;;;2.18;84.26
31911;BME280;18457;52.432;16.914;2023-02-16T07:13:26;101143.24;;;2.18;84.48
31911;BME280;18457;52.432;16.914;2023-02-16T07:15:59;101140.98;;;2.21;84.42
31911;BME280;18457;52.432;16.914;2023-02-16T07:18:31;101138.33;;;2.21;84.69
31911;BME280;18457;52.432;16.914;2023-02-16T07:21:04;101141.50;;;2.28;84.60
31911;BME280;18457;52.432;16.914;2023-02-16T07:23:36;101141.80;;;2.34;84.42
31911;BME280;18457;52.432;16.914;2023-02-16T07:26:09;101138.95;;;2.26;84.67
31911;BME280;18457;52.432;16.914;2023-02-16T07:28:41;101142.10;;;2.31;84.68
31911;BME280;18457;52.432;16.914;2023-02-16T07:31:14;101139.64;;;2.33;84.91
31911;BME280;18457;52.432;16.914;2023-02-16T07:33:47;101142.14;;;2.41;84.40
31911;BME280;18457;52.432;16.914;2023-02-16T07:36:18;101141.34;;;2.38;84.76
31911;BME280;18457;52.432;16.914;2023-02-16T07:38:50;101146.60;;;2.42;84.77
31911;BME280;18457;52.432;16.914;2023-02-16T07:41:23;101143.61;;;2.44;84.66
31911;BME280;18457;52.432;16.914;2023-02-16T07:43:56;101138.35;;;2.48;84.63
31911;BME280;18457;52.432;16.914;2023-02-16T07:46:28;101140.08;;;2.54;84.53
31911;BME280;18457;52.432;16.914;2023-02-16T07:49:02;101143.27;;;2.61;84.17
31911;BME280;18457;52.432;16.914;2023-02-16T07:51:35;101141.58;;;2.67;84.03
31911;BME280;18457;52.432;16.914;2023-02-16T07:54:07;101145.23;;;2.72;83.87
31911;BME280;18457;52.432;16.914;2023-02-16T07:56:39;101142.86;;;2.78;83.66
31911;BME280;18457;52.432;16.914;2023-02-16T07:59:10;101137.80;;;2.84;83.41
31911;BME280;18457;52.432;16.914;2023-02-16T08:01:42;101142.58;;;2.82;83.85
31911;BME280;18457;52.432;16.914;2023-02-16T08:04:14;101140.58;;;2.90;83.71
31911;BME280;18457;52.432;16.914;2023-02-16T08:06:49;101135.46;;;2.92;83.47
31911;BME280;18457;52.432;16.914;2023-02-16T08:09:21;101136.71;;;2.92;83.85
31911;BME280;18457;52.432;16.914;2023-02-16T08:11:53;101135.27;;;3.00;83.50
31911;BME280;18457;52.432;16.914;2023-02-16T08:14:25;101133.60;;;3.07;83.44
31911;BME280;18457;52.432;16.914;2023-02-16T08:16:57;101141.34;;;3.01;83.80
31911;BME280;18457;52.432;16.914;2023-02-16T08:19:29;101138.05;;;3.07;83.95
31911;BME280;18457;52.432;16.914;2023-02-16T08:22:02;101144.02;;;3.01;84.23
31911;BME280;18457;52.432;16.914;2023-02-16T08:24:34;101142.70;;;2.97;84.46
31911;BME280;18457;52.432;16.914;2023-02-16T08:27:05;101143.42;;;2.88;84.93
31911;BME280;18457;52.432;16.914;2023-02-16T08:29:37;101145.73;;;2.88;85.21
31911;BME280;18457;52.432;16.914;2023-02-16T08:32:10;101151.70;;;2.83;85.57
31911;BME280;18457;52.432;16.914;2023-02-16T08:34:43;101147.46;;;2.86;85.64
31911;BME280;18457;52.432;16.914;2023-02-16T08:37:14;101150.66;;;2.85;85.83
31911;BME280;18457;52.432;16.914;2023-02-16T08:39:47;101158.10;;;2.90;85.91
31911;BME280;18457;52.432;16.914;2023-02-16T08:42:18;101159.27;;;2.95;85.95
31911;BME280;18457;52.432;16.914;2023-02-16T08:44:50;101155.14;;;3.04;85.84
31911;BME280;18457;52.432;16.914;2023-02-16T08:47:22;101152.40;;;3.11;85.57
31911;BME280;18457;52.432;16.914;2023-02-16T08:49:54;101153.02;;;3.16;85.31
31911;BME280;18457;52.432;16.914;2023-02-16T08:52:30;101155.66;;;3.13;85.57
31911;BME280;18457;52.432;16.914;2023-02-16T08:55:03;101155.95;;;3.19;85.75
31911;BME280;18457;52.432;16.914;2023-02-16T08:57:36;101156.02;;;3.24;85.72
31911;BME280;18457;52.432;16.914;2023-02-16T09:00:09;101151.89;;;3.32;85.40
31911;BME280;18457;52.432;16.914;2023-02-16T09:06:22;101154.11;;;3.58;84.90
31911;BME280;18457;52.432;16.914;2023-02-16T09:08:55;101157.05;;;3.64;84.59
31911;BME280;18457;52.432;16.914;2023-02-16T09:11:28;101162.73;;;3.72;84.41
31911;BME280;18457;52.432;16.914;2023-02-16T09:14:00;101162.35;;;3.82;84.26
31911;BME280;18457;52.432;16.914;2023-02-16T09:16:39;101161.66;;;3.84;84.27
31911;BME280;18457;52.432;16.914;2023-02-16T09:19:21;101167.31;;;3.90;84.14
31911;BME280;18457;52.432;16.914;2023-02-16T09:21:54;101174.18;;;3.96;83.75
31911;BME280;18457;52.432;16.914;2023-02-16T09:24:27;101169.52;;;3.95;84.00
31911;BME280;18457;52.432;16.914;2023-02-16T09:26:59;101173.91;;;4.01;83.63
31911;BME280;18457;52.432;16.914;2023-02-16T09:29:31;101172.61;;;4.10;83.65
31911;BME280;18457;52.432;16.914;2023-02-16T09:32:04;101173.04;;;4.16;83.56
31911;BME280;18457;52.432;16.914;2023-02-16T09:34:37;101166.41;;;4.27;83.24
31911;BME280;18457;52.432;16.914;2023-02-16T09:37:10;101165.95;;;4.47;82.58
31911;BME280;18457;52.432;16.914;2023-02-16T09:39:41;101171.19;;;4.50;81.89
31911;BME280;18457;52.432;16.914;2023-02-16T09:42:22;101171.80;;;4.56;81.67
31911;BME280;18457;52.432;16.914;2023-02-16T09:45:03;101170.40;;;4.59;81.72
31911;BME280;18457;52.432;16.914;2023-02-16T09:47:39;101168.14;;;4.64;81.53
31911;BME280;18457;52.432;16.914;2023-02-16T09:50:16;101164.86;;;4.74;81.33
31911;BME280;18457;52.432;16.914;2023-02-16T09:53:11;101165.09;;;4.79;81.06
31911;BME280;18457;52.432;16.914;2023-02-16T09:55:53;101163.78;;;4.89;80.63
31911;BME280;18457;52.432;16.914;2023-02-16T09:58:32;101162.42;;;4.97;80.25
31911;BME280;18457;52.432;16.914;2023-02-16T10:01:09;101156.78;;;5.03;80.25
31911;BME280;18457;52.432;16.914;2023-02-16T10:03:57;101155.69;;;5.02;80.24
31911;BME280;18457;52.432;16.914;2023-02-16T10:06:47;101146.14;;;5.14;80.09
31911;BME280;18457;52.432;16.914;2023-02-16T10:09:21;101144.90;;;5.35;79.50
31911;BME280;18457;52.432;16.914;2023-02-16T10:11:59;101141.27;;;5.49;78.96
31911;BME280;18457;52.432;16.914;2023-02-16T10:14:37;101137.94;;;5.57;78.38
31911;BME280;18457;52.432;16.914;2023-02-16T10:17:17;101139.77;;;5.64;78.13
31911;BME280;18457;52.432;16.914;2023-02-16T10:19:56;101139.48;;;5.73;77.82
31911;BME280;18457;52.432;16.914;2023-02-16T10:22:34;101142.38;;;5.78;77.74
31911;BME280;18457;52.432;16.914;2023-02-16T10:25:12;101142.11;;;5.87;77.14
31911;BME280;18457;52.432;16.914;2023-02-16T10:27:51;101142.92;;;5.99;76.60
31911;BME280;18457;52.432;16.914;2023-02-16T10:30:30;101141.30;;;5.97;76.63
31911;BME280;18457;52.432;16.914;2023-02-16T10:33:14;101139.30;;;5.93;76.81
31911;BME280;18457;52.432;16.914;2023-02-16T10:35:48;101137.92;;;6.01;76.48
31911;BME280;18457;52.432;16.914;2023-02-16T10:38:23;101134.70;;;6.04;76.53
31911;BME280;18457;52.432;16.914;2023-02-16T10:41:05;101136.54;;;6.10;76.72
31911;BME280;18457;52.432;16.914;2023-02-16T10:43:46;101133.78;;;6.33;76.24
31911;BME280;18457;52.432;16.914;2023-02-16T10:46:25;101134.92;;;6.47;75.13
31911;BME280;18457;52.432;16.914;2023-02-16T10:49:02;101134.45;;;6.61;74.53
31911;BME280;18457;52.432;16.914;2023-02-16T10:51:37;101130.16;;;6.69;74.00
31911;BME280;18457;52.432;16.914;2023-02-16T10:54:13;101129.64;;;6.75;73.59
31911;BME280;18457;52.432;16.914;2023-02-16T10:56:53;101120.16;;;6.90;73.49
31911;BME280;18457;52.432;16.914;2023-02-16T10:59:33;101119.31;;;7.07;72.92
31911;BME280;18457;52.432;16.914;2023-02-16T11:02:18;101114.65;;;7.16;72.48
31911;BME280;18457;52.432;16.914;2023-02-16T11:04:53;101115.19;;;7.12;71.92
31911;BME280;18457;52.432;16.914;2023-02-16T11:07:24;101116.98;;;7.26;71.80
31911;BME280;18457;52.432;16.914;2023-02-16T11:09:58;101122.39;;;7.30;71.59
31911;BME280;18457;52.432;16.914;2023-02-16T11:12:33;101117.89;;;7.35;71.65
31911;BME280;18457;52.432;16.914;2023-02-16T11:15:20;101114.67;;;7.49;71.33
31911;BME280;18457;52.432;16.914;2023-02-16T11:17:54;101109.45;;;7.43;71.27
31911;BME280;18457;52.432;16.914;2023-02-16T11:20:30;101111.26;;;7.52;71.27
31911;BME280;18457;52.432;16.914;2023-02-16T11:23:22;101106.04;;;7.50;71.42
31911;BME280;18457;52.432;16.914;2023-02-16T11:25:57;101098.30;;;7.45;71.35
31911;BME280;18457;52.432;16.914;2023-02-16T11:28:32;101092.90;;;7.62;71.22
31911;BME280;18457;52.432;16.914;2023-02-16T11:31:14;101088.92;;;7.82;70.62
31911;BME280;18457;52.432;16.914;2023-02-16T11:34:00;101091.04;;;8.00;70.02
31911;BME280;18457;52.432;16.914;2023-02-16T11:36:37;101092.61;;;8.15;69.77
31911;BME280;18457;52.432;16.914;2023-02-16T11:39:19;101083.96;;;8.19;69.30
31911;BME280;18457;52.432;16.914;2023-02-16T11:41:57;101088.61;;;8.38;68.86
31911;BME280;18457;52.432;16.914;2023-02-16T11:44:33;101090.14;;;8.56;68.11
31911;BME280;18457;52.432;16.914;2023-02-16T11:47:07;101087.60;;;8.62;67.68
31911;BME280;18457;52.432;16.914;2023-02-16T11:49:41;101086.04;;;8.80;67.71
31911;BME280;18457;52.432;16.914;2023-02-16T11:52:26;101084.89;;;8.93;67.33
31911;BME280;18457;52.432;16.914;2023-02-16T11:55:01;101087.39;;;8.95;67.18
31911;BME280;18457;52.432;16.914;2023-02-16T11:57:34;101088.59;;;9.06;66.81
31911;BME280;18457;52.432;16.914;2023-02-16T12:00:15;101088.90;;;9.11;66.65
31911;BME280;18457;52.432;16.914;2023-02-16T12:03:16;101089.14;;;9.26;66.67
31911;BME280;18457;52.432;16.914;2023-02-16T12:06:14;101085.33;;;9.30;66.34
31911;BME280;18457;52.432;16.914;2023-02-16T12:09:02;101083.90;;;9.28;66.64
31911;BME280;18457;52.432;16.914;2023-02-16T12:11:44;101085.58;;;9.22;66.56
31911;BME280;18457;52.432;16.914;2023-02-16T12:14:41;101084.11;;;9.26;66.81
31911;BME280;18457;52.432;16.914;2023-02-16T12:17:26;101083.70;;;9.32;66.69
31911;BME280;18457;52.432;16.914;2023-02-16T12:20:18;101078.16;;;9.46;66.61
31911;BME280;18457;52.432;16.914;2023-02-16T12:23:01;101073.81;;;9.50;66.06
31911;BME280;18457;52.432;16.914;2023-02-16T12:25:38;101072.88;;;9.52;66.17
31911;BME280;18457;52.432;16.914;2023-02-16T12:28:20;101070.45;;;9.61;66.23
31911;BME280;18457;52.432;16.914;2023-02-16T12:30:59;101064.19;;;9.75;65.60
31911;BME280;18457;52.432;16.914;2023-02-16T12:33:46;101061.62;;;9.79;65.08
31911;BME280;18457;52.432;16.914;2023-02-16T12:36:40;101062.41;;;9.72;65.00
31911;BME280;18457;52.432;16.914;2023-02-16T12:39:20;101055.98;;;9.64;65.18
31911;BME280;18457;52.432;16.914;2023-02-16T12:42:00;101052.53;;;9.49;65.54
31911;BME280;18457;52.432;16.914;2023-02-16T12:44:41;101052.42;;;9.61;65.63
31911;BME280;18457;52.432;16.914;2023-02-16T12:47:22;101055.52;;;9.57;65.64
31911;BME280;18457;52.432;16.914;2023-02-16T12:50:00;101056.44;;;9.73;65.85
31911;BME280;18457;52.432;16.914;2023-02-16T12:52:38;101054.81;;;9.75;65.35
31911;BME280;18457;52.432;16.914;2023-02-16T12:55:19;101047.99;;;9.87;65.23
31911;BME280;18457;52.432;16.914;2023-02-16T12:57:56;101047.14;;;9.99;64.69
31911;BME280;18457;52.432;16.914;2023-02-16T13:00:38;101046.85;;;10.10;64.40
31911;BME280;18457;52.432;16.914;2023-02-16T13:03:25;101048.11;;;10.10;64.38
31911;BME280;18457;52.432;16.914;2023-02-16T13:06:05;101044.34;;;10.07;64.46
31911;BME280;18457;52.432;16.914;2023-02-16T13:08:42;101041.14;;;10.20;64.43
31911;BME280;18457;52.432;16.914;2023-02-16T13:11:20;101042.80;;;10.17;64.33
31911;BME280;18457;52.432;16.914;2023-02-16T13:13:58;101036.39;;;10.09;64.53
31911;BME280;18457;52.432;16.914;2023-02-16T13:16:38;101037.30;;;10.08;64.69
31911;BME280;18457;52.432;16.914;2023-02-16T13:19:13;101021.52;;;10.15;64.54
31911;BME280;18457;52.432;16.914;2023-02-16T13:22:14;101022.98;;;10.13;64.34
31911;BME280;18457;52.432;16.914;2023-02-16T13:25:05;101022.08;;;10.14;64.50
31911;BME280;18457;52.432;16.914;2023-02-16T13:27:49;101019.02;;;10.14;64.53
31911;BME280;18457;52.432;16.914;2023-02-16T13:30:45;101010.44;;;10.21;64.47
31911;BME280;18457;52.432;16.914;2023-02-16T13:33:31;101010.19;;;10.39;64.43
31911;BME280;18457;52.432;16.914;2023-02-16T13:36:31;101009.11;;;10.39;64.20
31911;BME280;18457;52.432;16.914;2023-02-16T13:42:09;101005.27;;;10.55;63.86
31911;BME280;18457;52.432;16.914;2023-02-16T13:44:48;101002.73;;;10.43;63.54
31911;BME280;18457;52.432;16.914;2023-02-16T13:47:25;101001.98;;;10.44;63.85
31911;BME280;18457;52.432;16.914;2023-02-16T13:50:00;100999.39;;;10.49;63.48